San Jose, California
Current Conditions -  °F | °C
As of 1:53 PM on Friday 19 Dec 2014 (Local Time) from KSJC Reporting Station
Light Rain Light Rain  
Wind Chill: 56°   Ceiling: 9000
Heat Index: 56°   Visibility: 10mi
Dew Point: 55°   Wind: 12mph
Humidity: 97%   Direction: 110°ESE
Pressure: 30.13"   Gusts: NA
Location:  37.35°N, 121.9°W
Report Text: KSJC 192153Z 11010KT 10SM -RA FEW007 BKN090 OVC120 13/13 A3013 RMK AO2 SLP201 P0004 T01330128
Loading
Personal Weather Stations






























Interactive Weather Map New forecast layout! Learn more

10-Day Weather Forecast

Advertisements
Track Severe Weather on mobile